createdAt,value
2022-09-16T00:01:31.142Z,11.69
2022-09-16T00:04:03.527Z,11.65
2022-09-16T00:06:35.378Z,11.63
2022-09-16T00:09:07.211Z,11.61
2022-09-16T00:11:39.040Z,11.58
2022-09-16T00:14:11.069Z,11.57
2022-09-16T00:16:43.219Z,11.56
2022-09-16T00:19:15.456Z,11.54
2022-09-16T00:21:49.850Z,11.52
2022-09-16T00:24:21.620Z,11.49
2022-09-16T00:26:53.763Z,11.47
2022-09-16T00:29:25.688Z,11.45
2022-09-16T00:31:57.528Z,11.43
2022-09-16T00:34:29.350Z,11.41
2022-09-16T00:37:03.370Z,11.39
2022-09-16T00:39:35.343Z,11.37
2022-09-16T00:42:07.564Z,11.34
2022-09-16T00:44:58.620Z,11.33
2022-09-16T00:47:36.405Z,11.31
2022-09-16T00:50:12.344Z,11.27
2022-09-16T00:52:44.533Z,11.25
2022-09-16T00:55:21.520Z,11.23
2022-09-16T00:57:55.684Z,11.21
2022-09-16T01:00:27.601Z,11.19
2022-09-16T01:02:59.933Z,11.17
2022-09-16T01:05:32.551Z,11.14
2022-09-16T01:08:05.520Z,11.13
2022-09-16T01:10:37.342Z,11.11
2022-09-16T01:13:12.814Z,11.10
2022-09-16T01:15:53.038Z,11.07
2022-09-16T01:18:32.651Z,11.05
2022-09-16T01:21:19.440Z,11.03
2022-09-16T01:24:35.526Z,11.01
2022-09-16T01:27:22.281Z,10.99
2022-09-16T01:30:17.665Z,10.96
2022-09-16T01:33:01.530Z,10.95
2022-09-16T01:35:50.097Z,10.93
2022-09-16T01:38:35.372Z,10.91
2022-09-16T01:41:15.482Z,10.89
2022-09-16T01:43:57.357Z,10.87
2022-09-16T01:46:38.423Z,10.84
2022-09-16T01:49:19.538Z,10.82
2022-09-16T01:52:02.041Z,10.79
2022-09-16T01:54:41.718Z,10.78
2022-09-16T01:57:17.919Z,10.76
2022-09-16T01:59:55.416Z,10.74
2022-09-16T02:02:33.181Z,10.72
2022-09-16T02:05:09.601Z,10.71
2022-09-16T02:07:44.898Z,10.68
2022-09-16T02:10:23.387Z,10.67
2022-09-16T02:13:04.203Z,10.65
2022-09-16T02:15:36.784Z,10.63
2022-09-16T02:18:13.893Z,10.62
2022-09-16T02:20:49.071Z,10.60
2022-09-16T02:23:24.797Z,10.58
2022-09-16T02:25:59.506Z,10.56
2022-09-16T02:28:35.769Z,10.54
2022-09-16T02:31:09.973Z,10.52
2022-09-16T02:33:46.199Z,10.50
2022-09-16T02:36:21.942Z,10.49
2022-09-16T02:38:58.499Z,10.47
2022-09-16T02:41:30.539Z,10.45
2022-09-16T02:44:02.734Z,10.43
2022-09-16T02:46:41.249Z,10.43
2022-09-16T02:49:19.664Z,10.40
2022-09-16T02:51:59.654Z,10.39
2022-09-16T02:54:39.640Z,10.38
2022-09-16T02:57:12.157Z,10.36
2022-09-16T02:59:44.425Z,10.34
2022-09-16T03:02:16.466Z,10.33
2022-09-16T03:04:48.591Z,10.32
2022-09-16T03:07:20.721Z,10.31
2022-09-16T03:09:53.359Z,10.30
2022-09-16T03:12:52.233Z,10.28
2022-09-16T03:15:56.876Z,10.26
2022-09-16T03:18:51.923Z,10.26
2022-09-16T03:21:33.263Z,10.24
2022-09-16T03:24:11.703Z,10.23
2022-09-16T03:26:54.201Z,10.21
2022-09-16T03:29:32.833Z,10.20
2022-09-16T03:32:15.484Z,10.19
2022-09-16T03:34:53.271Z,10.18
2022-09-16T03:37:32.299Z,10.17
2022-09-16T03:40:11.059Z,10.17
2022-09-16T03:42:44.650Z,10.15
2022-09-16T03:45:19.293Z,10.13
2022-09-16T03:47:53.769Z,10.11
2022-09-16T03:50:25.613Z,10.10
2022-09-16T03:52:57.463Z,10.10
2022-09-16T03:55:29.649Z,10.07
2022-09-16T03:58:01.495Z,10.06
2022-09-16T04:00:33.236Z,10.05
2022-09-16T04:03:05.248Z,10.05
2022-09-16T04:05:37.128Z,10.03
2022-09-16T04:08:09.059Z,10.02
2022-09-16T04:10:41.095Z,10.01
2022-09-16T04:13:12.976Z,9.99
2022-09-16T04:15:44.837Z,9.97
2022-09-16T04:18:16.731Z,9.95
2022-09-16T04:20:48.567Z,9.93
2022-09-16T04:23:20.572Z,9.92
2022-09-16T04:25:57.850Z,9.90
2022-09-16T04:28:31.469Z,9.90
2022-09-16T04:31:05.038Z,9.89
2022-09-16T04:33:38.206Z,9.88
2022-09-16T04:36:13.289Z,9.89
2022-09-16T04:38:47.576Z,9.89
2022-09-16T04:41:21.605Z,9.88
2022-09-16T04:43:56.574Z,9.87
2022-09-16T04:46:31.270Z,9.85
2022-09-16T04:49:03.896Z,9.84
2022-09-16T04:51:35.721Z,9.83
2022-09-16T04:54:07.937Z,9.84
2022-09-16T04:56:39.826Z,9.84
2022-09-16T04:59:12.635Z,9.85
2022-09-16T05:01:46.002Z,9.85
2022-09-16T05:04:17.982Z,9.85
2022-09-16T05:06:49.865Z,9.86
2022-09-16T05:09:22.913Z,9.87
2022-09-16T05:11:54.908Z,9.88
2022-09-16T05:14:26.730Z,9.89
2022-09-16T05:16:58.591Z,9.90
2022-09-16T05:19:30.599Z,9.92
2022-09-16T05:22:07.028Z,9.92
2022-09-16T05:24:38.913Z,9.94
2022-09-16T05:27:10.918Z,9.97
2022-09-16T05:29:43.212Z,9.99
2022-09-16T05:32:15.045Z,10.01
2022-09-16T05:34:47.264Z,10.04
2022-09-16T05:37:19.227Z,10.07
2022-09-16T05:39:51.050Z,10.09
2022-09-16T05:42:23.075Z,10.11
2022-09-16T05:44:55.084Z,10.16
2022-09-16T05:47:27.570Z,10.18
2022-09-16T05:49:59.426Z,10.21
2022-09-16T05:52:31.163Z,10.24
2022-09-16T05:55:06.477Z,10.27
2022-09-16T05:57:38.358Z,10.31
2022-09-16T06:00:14.579Z,10.36
2022-09-16T06:02:48.315Z,10.40
2022-09-16T06:05:20.402Z,10.44
2022-09-16T06:07:52.214Z,10.47
2022-09-16T06:10:24.048Z,10.53
2022-09-16T06:12:55.981Z,10.57
2022-09-16T06:15:27.809Z,10.62
2022-09-16T06:18:04.184Z,10.66
2022-09-16T06:20:39.424Z,10.72
2022-09-16T06:23:11.552Z,10.76
2022-09-16T06:25:44.100Z,10.80
2022-09-16T06:28:16.706Z,10.86
2022-09-16T06:30:48.550Z,10.92
2022-09-16T06:33:20.352Z,10.97
2022-09-16T06:35:53.601Z,11.01
2022-09-16T06:38:25.774Z,11.06
2022-09-16T06:41:01.034Z,11.13
2022-09-16T06:43:33.908Z,11.19
2022-09-16T06:46:10.392Z,11.24
2022-09-16T06:48:43.884Z,11.29
2022-09-16T06:51:17.820Z,11.34
2022-09-16T06:53:50.754Z,11.39
2022-09-16T06:56:23.681Z,11.45
2022-09-16T06:58:57.398Z,11.52
2022-09-16T07:01:31.692Z,11.59
2022-09-16T07:04:06.589Z,11.65
2022-09-16T07:07:07.469Z,11.73
2022-09-16T07:09:30.938Z,11.83
2022-09-16T07:12:03.703Z,11.93
2022-09-16T07:14:35.681Z,11.98
2022-09-16T07:17:09.139Z,11.99
2022-09-16T07:19:42.475Z,12.01
2022-09-16T07:22:14.602Z,12.04
2022-09-16T07:24:47.015Z,12.11
2022-09-16T07:27:18.972Z,12.17
2022-09-16T07:29:51.254Z,12.22
2022-09-16T07:32:23.313Z,12.25
2022-09-16T07:34:55.566Z,12.32
2022-09-16T07:37:27.447Z,12.39
2022-09-16T07:39:59.619Z,12.45
2022-09-16T07:42:32.937Z,12.47
2022-09-16T07:45:04.919Z,12.53
2022-09-16T07:47:36.995Z,12.64
2022-09-16T07:50:10.759Z,12.77
2022-09-16T07:52:42.612Z,12.90
2022-09-16T07:55:16.073Z,13.02
2022-09-16T07:57:47.980Z,13.14
2022-09-16T08:00:20.708Z,13.21
2022-09-16T08:02:57.123Z,13.30
2022-09-16T08:05:29.175Z,13.35
2022-09-16T08:08:00.957Z,13.34
2022-09-16T08:10:32.901Z,13.30
2022-09-16T08:13:05.937Z,13.26
2022-09-16T08:15:37.870Z,13.25
2022-09-16T08:18:09.694Z,13.24
2022-09-16T08:20:41.527Z,13.25
2022-09-16T08:23:14.554Z,13.25
2022-09-16T08:25:47.321Z,13.31
2022-09-16T08:28:21.278Z,13.36
2022-09-16T08:30:53.319Z,13.36
2022-09-16T08:33:26.114Z,13.35
2022-09-16T08:36:06.307Z,13.36
2022-09-16T08:38:38.416Z,13.33
2022-09-16T08:41:25.040Z,13.31
2022-09-16T08:44:05.678Z,13.31
2022-09-16T08:46:46.845Z,13.33
2022-09-16T08:49:28.416Z,13.46
2022-09-16T08:52:03.379Z,13.61
2022-09-16T08:54:40.218Z,13.68
2022-09-16T08:57:20.695Z,13.69
2022-09-16T08:59:55.693Z,13.67
2022-09-16T09:05:26.657Z,13.73
2022-09-16T09:08:13.525Z,13.77
2022-09-16T09:10:53.724Z,13.82
2022-09-16T09:13:39.942Z,13.88
2022-09-16T09:16:22.778Z,13.95
2022-09-16T09:19:05.138Z,13.97
2022-09-16T09:21:46.870Z,14.05
2022-09-16T09:24:45.161Z,14.18
2022-09-16T09:27:27.713Z,14.35
2022-09-16T09:30:09.836Z,14.46
2022-09-16T09:33:03.702Z,14.50
2022-09-16T09:35:50.427Z,14.49
2022-09-16T09:39:04.410Z,14.46
2022-09-16T09:41:41.141Z,14.47
2022-09-16T09:44:29.678Z,14.50
2022-09-16T09:47:06.482Z,14.62
2022-09-16T09:49:42.336Z,14.71
2022-09-16T09:52:20.928Z,14.77
2022-09-16T09:54:54.281Z,14.76
2022-09-16T09:57:33.452Z,14.79
2022-09-16T10:00:13.321Z,14.83
2022-09-16T10:02:49.922Z,14.93
2022-09-16T10:05:26.680Z,15.08
2022-09-16T10:08:16.407Z,15.18
2022-09-16T10:10:52.773Z,15.24
2022-09-16T10:13:26.801Z,15.29
2022-09-16T10:16:11.431Z,15.37
2022-09-16T10:18:43.563Z,15.44
2022-09-16T10:21:18.209Z,15.47
2022-09-16T10:23:58.570Z,15.54
2022-09-16T10:26:31.213Z,15.63
2022-09-16T10:29:12.827Z,15.70
2022-09-16T10:31:45.263Z,15.77
2022-09-16T10:34:23.917Z,15.79
2022-09-16T10:37:06.101Z,15.77
2022-09-16T10:39:38.957Z,15.76
2022-09-16T10:42:20.945Z,15.82
2022-09-16T10:44:55.082Z,15.84
2022-09-16T10:47:30.530Z,15.88
2022-09-16T10:50:05.357Z,15.96
2022-09-16T10:52:45.369Z,16.04
2022-09-16T10:55:29.607Z,16.09
2022-09-16T10:58:15.841Z,16.10
2022-09-16T11:00:58.636Z,16.05
2022-09-16T11:04:01.457Z,15.93
2022-09-16T11:06:45.306Z,15.78
2022-09-16T11:09:27.317Z,15.74
2022-09-16T11:12:27.898Z,15.71
2022-09-16T11:15:10.136Z,15.64
2022-09-16T11:17:58.273Z,15.58
2022-09-16T11:20:52.045Z,15.49
2022-09-16T11:23:42.412Z,15.39
2022-09-16T11:26:24.739Z,15.26
2022-09-16T11:29:15.539Z,15.16
2022-09-16T11:32:01.421Z,15.06
2022-09-16T11:34:49.668Z,14.99
2022-09-16T11:37:27.143Z,14.93
2022-09-16T11:40:16.826Z,14.93
2022-09-16T11:42:56.530Z,14.96
2022-09-16T11:45:43.755Z,14.97
2022-09-16T11:48:32.870Z,14.96
2022-09-16T11:51:12.967Z,14.93
2022-09-16T11:53:59.492Z,14.93
2022-09-16T11:56:38.989Z,14.94
2022-09-16T11:59:19.001Z,15.02
2022-09-16T12:01:56.148Z,15.16
2022-09-16T12:04:34.983Z,15.33
2022-09-16T12:07:19.089Z,15.47
2022-09-16T12:09:57.043Z,15.59
2022-09-16T12:12:38.667Z,15.70
2022-09-16T12:15:22.574Z,15.85
2022-09-16T12:17:57.817Z,15.99
2022-09-16T12:20:34.524Z,16.10
2022-09-16T12:23:18.674Z,16.18
2022-09-16T12:26:06.538Z,16.30
2022-09-16T12:28:46.156Z,16.38
2022-09-16T12:31:33.897Z,16.42
2022-09-16T12:34:13.219Z,16.49
2022-09-16T12:36:50.935Z,16.47
2022-09-16T12:39:22.840Z,16.44
2022-09-16T12:42:25.609Z,16.43
2022-09-16T12:45:21.846Z,16.45
2022-09-16T12:48:12.506Z,16.36
2022-09-16T12:51:01.471Z,16.24
2022-09-16T12:54:09.667Z,16.16
2022-09-16T12:56:56.190Z,16.08
2022-09-16T12:59:52.431Z,16.01
2022-09-16T13:02:29.863Z,15.95
2022-09-16T13:05:14.629Z,15.91
2022-09-16T13:07:54.403Z,15.91
2022-09-16T13:10:54.032Z,15.93
2022-09-16T13:13:31.261Z,15.96
2022-09-16T13:16:06.506Z,15.96
2022-09-16T13:18:47.637Z,15.92
2022-09-16T13:21:28.168Z,15.87
2022-09-16T13:24:05.598Z,15.87
2022-09-16T13:26:45.448Z,15.88
2022-09-16T13:29:44.898Z,15.91
2022-09-16T13:32:39.770Z,15.99
2022-09-16T13:35:37.796Z,16.05
2022-09-16T13:38:39.776Z,16.06
2022-09-16T13:41:14.392Z,16.05
2022-09-16T13:43:55.938Z,16.03
2022-09-16T13:46:37.986Z,16.01
2022-09-16T13:49:23.916Z,15.99
2022-09-16T13:51:56.118Z,15.99
2022-09-16T13:54:47.986Z,16.00
2022-09-16T13:57:43.364Z,16.01
2022-09-16T14:00:19.874Z,16.05
2022-09-16T14:03:18.131Z,16.09
2022-09-16T14:06:11.430Z,16.07
2022-09-16T14:08:53.941Z,16.07
2022-09-16T14:11:34.390Z,16.07
2022-09-16T14:14:19.762Z,16.05
2022-09-16T14:17:06.614Z,16.05
2022-09-16T14:19:41.267Z,16.03
2022-09-16T14:22:21.712Z,16.00
2022-09-16T14:25:05.777Z,15.97
2022-09-16T14:27:40.207Z,15.93
2022-09-16T14:30:19.005Z,15.93
2022-09-16T14:32:51.556Z,15.94
2022-09-16T14:35:27.226Z,15.96
2022-09-16T14:40:49.798Z,16.00
2022-09-16T14:43:24.138Z,16.02
2022-09-16T14:46:01.486Z,16.04
2022-09-16T14:48:39.882Z,16.02
2022-09-16T14:51:21.867Z,15.99
2022-09-16T14:54:15.560Z,15.98
2022-09-16T14:56:57.870Z,15.95
2022-09-16T14:59:32.305Z,15.91
2022-09-16T15:02:09.471Z,15.85
2022-09-16T15:04:45.487Z,15.79
2022-09-16T15:07:25.923Z,15.73
2022-09-16T15:10:02.312Z,15.70
2022-09-16T15:12:36.976Z,15.69
2022-09-16T15:15:21.000Z,15.70
2022-09-16T15:17:58.623Z,15.71
2022-09-16T15:20:33.902Z,15.71
2022-09-16T15:23:12.253Z,15.68
2022-09-16T15:25:55.247Z,15.63
2022-09-16T15:28:27.424Z,15.58
2022-09-16T15:30:59.630Z,15.52
2022-09-16T15:33:42.736Z,15.45
2022-09-16T15:36:36.244Z,15.40
2022-09-16T15:39:23.831Z,15.33
2022-09-16T15:42:12.244Z,15.29
2022-09-16T15:44:50.126Z,15.24
2022-09-16T15:47:25.685Z,15.21
2022-09-16T15:50:04.146Z,15.19
2022-09-16T15:52:51.335Z,15.18
2022-09-16T15:55:36.427Z,15.16
2022-09-16T15:58:14.700Z,15.11
2022-09-16T16:01:07.028Z,15.06
2022-09-16T16:03:53.817Z,15.02
2022-09-16T16:06:47.480Z,14.96
2022-09-16T16:09:48.975Z,14.91
2022-09-16T16:12:21.844Z,14.85
2022-09-16T16:14:55.164Z,14.81
2022-09-16T16:17:28.631Z,14.74
2022-09-16T16:20:00.902Z,14.70
2022-09-16T16:22:33.382Z,14.66
2022-09-16T16:25:05.512Z,14.60
2022-09-16T16:27:37.719Z,14.55
2022-09-16T16:30:11.171Z,14.50
2022-09-16T16:32:43.752Z,14.43
2022-09-16T16:35:16.021Z,14.37
2022-09-16T16:37:48.152Z,14.32
2022-09-16T16:40:20.616Z,14.27
2022-09-16T16:42:52.498Z,14.22
2022-09-16T16:45:24.649Z,14.17
2022-09-16T16:47:56.937Z,14.14
2022-09-16T16:50:28.868Z,14.10
2022-09-16T16:53:00.919Z,14.04
2022-09-16T16:55:34.171Z,14.02
2022-09-16T16:58:06.012Z,13.98
2022-09-16T17:00:38.038Z,13.96
2022-09-16T17:03:09.942Z,13.93
2022-09-16T17:05:42.313Z,13.90
2022-09-16T17:08:14.190Z,13.86
2022-09-16T17:10:46.949Z,13.82
2022-09-16T17:13:19.328Z,13.74
2022-09-16T17:15:53.488Z,13.69
2022-09-16T17:18:25.662Z,13.62
2022-09-16T17:21:04.181Z,13.56
2022-09-16T17:23:36.534Z,13.49
2022-09-16T17:26:10.203Z,13.42
2022-09-16T17:28:44.887Z,13.36
2022-09-16T17:31:20.225Z,13.29
2022-09-16T17:33:53.950Z,13.22
2022-09-16T17:36:27.312Z,13.14
2022-09-16T17:39:00.957Z,13.08
2022-09-16T17:41:33.723Z,13.01
2022-09-16T17:44:08.670Z,12.97
2022-09-16T17:46:41.508Z,12.93
2022-09-16T17:49:18.326Z,12.89
2022-09-16T17:51:51.364Z,12.85
2022-09-16T17:54:23.967Z,12.80
2022-09-16T17:56:55.931Z,12.75
2022-09-16T17:59:27.769Z,12.72
2022-09-16T18:01:59.743Z,12.69
2022-09-16T18:04:33.098Z,12.64
2022-09-16T18:07:05.059Z,12.61
2022-09-16T18:09:37.300Z,12.59
2022-09-16T18:12:17.249Z,12.57
2022-09-16T18:14:49.739Z,12.55
2022-09-16T18:17:22.175Z,12.54
2022-09-16T18:19:55.168Z,12.54
2022-09-16T18:22:27.375Z,12.53
2022-09-16T18:24:59.356Z,12.53
2022-09-16T18:27:31.302Z,12.54
2022-09-16T18:30:03.378Z,12.54
2022-09-16T18:32:35.728Z,12.53
2022-09-16T18:35:09.115Z,12.53
2022-09-16T18:37:41.157Z,12.53
2022-09-16T18:40:13.840Z,12.53
2022-09-16T18:42:45.836Z,12.53
2022-09-16T18:45:17.937Z,12.53
2022-09-16T18:47:49.861Z,12.53
2022-09-16T18:50:22.130Z,12.53
2022-09-16T18:52:57.243Z,12.53
2022-09-16T18:55:29.280Z,12.53
2022-09-16T18:58:02.515Z,12.52
2022-09-16T19:00:35.488Z,12.51
2022-09-16T19:03:07.943Z,12.51
2022-09-16T19:05:40.172Z,12.49
2022-09-16T19:08:14.642Z,12.46
2022-09-16T19:10:46.836Z,12.42
2022-09-16T19:13:22.111Z,12.39
2022-09-16T19:15:59.048Z,12.37
2022-09-16T19:18:31.276Z,12.34
2022-09-16T19:21:06.054Z,12.31
2022-09-16T19:23:38.255Z,12.28
2022-09-16T19:26:10.383Z,12.24
2022-09-16T19:28:42.856Z,12.21
2022-09-16T19:31:15.822Z,12.18
2022-09-16T19:33:47.758Z,12.15
2022-09-16T19:36:22.258Z,12.14
2022-09-16T19:42:13.977Z,12.10
2022-09-16T19:44:45.791Z,12.09
2022-09-16T19:47:20.630Z,12.09
2022-09-16T19:49:52.804Z,12.08
2022-09-16T19:52:25.218Z,12.08
2022-09-16T19:54:57.726Z,12.07
2022-09-16T19:57:29.618Z,12.06
2022-09-16T20:00:01.866Z,12.05
2022-09-16T20:02:46.654Z,12.01
2022-09-16T20:05:21.238Z,11.99
2022-09-16T20:07:53.310Z,11.95
2022-09-16T20:10:25.846Z,11.92
2022-09-16T20:12:59.467Z,11.88
2022-09-16T20:15:31.519Z,11.86
2022-09-16T20:18:03.746Z,11.83
2022-09-16T20:20:36.112Z,11.80
2022-09-16T20:26:12.307Z,11.74
2022-09-16T20:28:45.175Z,11.70
2022-09-16T20:31:18.337Z,11.66
2022-09-16T20:33:51.793Z,11.63
2022-09-16T20:36:26.010Z,11.59
2022-09-16T20:38:59.677Z,11.57
2022-09-16T20:41:33.667Z,11.54
2022-09-16T20:44:07.032Z,11.51
2022-09-16T20:46:39.772Z,11.49
2022-09-16T20:49:15.984Z,11.46
2022-09-16T20:51:48.128Z,11.42
2022-09-16T20:54:20.436Z,11.40
2022-09-16T20:56:52.305Z,11.36
2022-09-16T20:59:24.103Z,11.36
2022-09-16T21:01:57.545Z,11.33
2022-09-16T21:04:29.550Z,11.30
2022-09-16T21:07:01.377Z,11.26
2022-09-16T21:09:33.317Z,11.24
2022-09-16T21:12:07.428Z,11.21
2022-09-16T21:14:40.531Z,11.18
2022-09-16T21:17:12.390Z,11.15
2022-09-16T21:19:44.269Z,11.12
2022-09-16T21:22:16.180Z,11.09
2022-09-16T21:24:49.213Z,11.08
2022-09-16T21:27:21.072Z,11.07
2022-09-16T21:29:52.969Z,11.08
2022-09-16T21:32:25.059Z,11.10
2022-09-16T21:34:58.071Z,11.11
2022-09-16T21:37:29.983Z,11.12
2022-09-16T21:40:02.065Z,11.13
2022-09-16T21:42:35.240Z,11.12
2022-09-16T21:45:08.747Z,11.12
2022-09-16T21:47:40.632Z,11.09
2022-09-16T21:50:12.849Z,11.07
2022-09-16T21:52:45.226Z,11.06
2022-09-16T21:55:17.260Z,11.04
2022-09-16T21:57:50.788Z,11.02
2022-09-16T22:00:22.724Z,10.99
2022-09-16T22:02:56.669Z,10.96
2022-09-16T22:05:28.750Z,10.95
2022-09-16T22:08:01.703Z,10.92
2022-09-16T22:10:33.628Z,10.90
2022-09-16T22:13:05.476Z,10.87
2022-09-16T22:15:37.363Z,10.85
2022-09-16T22:18:09.214Z,10.84
2022-09-16T22:20:41.004Z,10.82
2022-09-16T22:23:13.000Z,10.80
2022-09-16T22:25:45.379Z,10.80
2022-09-16T22:28:17.550Z,10.77
2022-09-16T22:30:51.111Z,10.76
2022-09-16T22:33:22.963Z,10.75
2022-09-16T22:35:54.785Z,10.73
2022-09-16T22:38:26.920Z,10.72
2022-09-16T22:41:02.966Z,10.71
2022-09-16T22:43:39.051Z,10.70
2022-09-16T22:46:12.585Z,10.70
2022-09-16T22:48:45.065Z,10.71
2022-09-16T22:51:18.665Z,10.71
2022-09-16T22:53:50.870Z,10.73
2022-09-16T22:56:25.177Z,10.74
2022-09-16T22:58:58.192Z,10.77
2022-09-16T23:01:32.953Z,10.79
2022-09-16T23:04:06.374Z,10.83
2022-09-16T23:06:39.609Z,10.85
2022-09-16T23:09:13.580Z,10.88
2022-09-16T23:11:46.625Z,10.90
2022-09-16T23:14:26.359Z,10.93
2022-09-16T23:16:58.227Z,10.95
2022-09-16T23:19:30.058Z,10.97
2022-09-16T23:22:01.827Z,10.98
2022-09-16T23:24:33.643Z,10.99
2022-09-16T23:27:06.153Z,11.00
2022-09-16T23:29:38.031Z,10.99
2022-09-16T23:32:10.006Z,10.97
2022-09-16T23:34:42.349Z,10.95
2022-09-16T23:37:14.165Z,10.93
2022-09-16T23:39:45.948Z,10.91
2022-09-16T23:42:18.079Z,10.88
2022-09-16T23:44:50.053Z,10.85
2022-09-16T23:47:22.817Z,10.82
2022-09-16T23:49:54.582Z,10.79
2022-09-16T23:52:26.570Z,10.76
2022-09-16T23:54:58.300Z,10.73
2022-09-16T23:57:30.105Z,10.69
